sensor_id;sensor_type;location;lat;lon;timestamp;temperature;humidity
71304;DHT22;59091;47.446;19.148;2023-04-02T00:08:02;11.33;65.79
71304;DHT22;59091;47.446;19.148;2023-04-02T00:15:36;11.50;65.10
71304;DHT22;59091;47.446;19.148;2023-04-02T00:18:02;11.53;64.99
71304;DHT22;59091;47.446;19.148;2023-04-02T00:20:32;11.56;64.79
71304;DHT22;59091;47.446;19.148;2023-04-02T00:22:59;11.59;64.69
71304;DHT22;59091;47.446;19.148;2023-04-02T00:25:26;11.55;64.77
71304;DHT22;59091;47.446;19.148;2023-04-02T00:27:55;11.59;64.74
71304;DHT22;59091;47.446;19.148;2023-04-02T00:30:21;11.46;65.06
71304;DHT22;59091;47.446;19.148;2023-04-02T00:32:46;11.46;65.43
71304;DHT22;59091;47.446;19.148;2023-04-02T00:35:26;11.40;65.48
71304;DHT22;59091;47.446;19.148;2023-04-02T00:37:53;11.37;65.80
71304;DHT22;59091;47.446;19.148;2023-04-02T00:40:23;11.40;65.68
71304;DHT22;59091;47.446;19.148;2023-04-02T00:42:51;11.36;65.78
71304;DHT22;59091;47.446;19.148;2023-04-02T00:45:26;11.26;66.04
71304;DHT22;59091;47.446;19.148;2023-04-02T00:47:54;11.47;65.81
71304;DHT22;59091;47.446;19.148;2023-04-02T00:50:33;11.37;65.69
71304;DHT22;59091;47.446;19.148;2023-04-02T00:53:03;11.33;66.03
71304;DHT22;59091;47.446;19.148;2023-04-02T00:55:35;11.46;65.76
71304;DHT22;59091;47.446;19.148;2023-04-02T00:58:02;11.36;66.19
71304;DHT22;59091;47.446;19.148;2023-04-02T01:00:31;11.47;65.82
71304;DHT22;59091;47.446;19.148;2023-04-02T01:05:43;11.50;65.63
71304;DHT22;59091;47.446;19.148;2023-04-02T01:16:38;11.29;65.99
71304;DHT22;59091;47.446;19.148;2023-04-02T01:22:21;11.32;65.90
71304;DHT22;59091;47.446;19.148;2023-04-02T01:24:50;11.50;65.59
71304;DHT22;59091;47.446;19.148;2023-04-02T01:27:26;11.47;65.56
71304;DHT22;59091;47.446;19.148;2023-04-02T01:29:55;11.56;65.39
71304;DHT22;59091;47.446;19.148;2023-04-02T01:32:23;11.62;65.24
71304;DHT22;59091;47.446;19.148;2023-04-02T01:34:51;11.63;65.15
71304;DHT22;59091;47.446;19.148;2023-04-02T01:37:45;11.56;64.96
71304;DHT22;59091;47.446;19.148;2023-04-02T01:43:15;11.53;65.18
71304;DHT22;59091;47.446;19.148;2023-04-02T01:45:43;11.66;65.19
71304;DHT22;59091;47.446;19.148;2023-04-02T01:48:15;11.56;65.52
71304;DHT22;59091;47.446;19.148;2023-04-02T01:50:43;11.56;65.71
71304;DHT22;59091;47.446;19.148;2023-04-02T01:53:11;11.36;65.77
71304;DHT22;59091;47.446;19.148;2023-04-02T01:55:44;11.46;65.93
71304;DHT22;59091;47.446;19.148;2023-04-02T01:58:12;11.50;65.88
71304;DHT22;59091;47.446;19.148;2023-04-02T02:00:46;11.35;65.55
71304;DHT22;59091;47.446;19.148;2023-04-02T02:03:14;11.56;65.18
71304;DHT22;59091;47.446;19.148;2023-04-02T02:05:41;11.59;65.26
71304;DHT22;59091;47.446;19.148;2023-04-02T02:08:21;11.49;65.64
71304;DHT22;59091;47.446;19.148;2023-04-02T02:10:48;11.65;65.37
71304;DHT22;59091;47.446;19.148;2023-04-02T02:13:15;11.70;65.05
71304;DHT22;59091;47.446;19.148;2023-04-02T02:15:40;11.70;64.88
71304;DHT22;59091;47.446;19.148;2023-04-02T02:18:06;11.62;65.19
71304;DHT22;59091;47.446;19.148;2023-04-02T02:20:35;11.60;65.31
71304;DHT22;59091;47.446;19.148;2023-04-02T02:23:01;11.59;65.45
71304;DHT22;59091;47.446;19.148;2023-04-02T02:25:31;11.56;65.39
71304;DHT22;59091;47.446;19.148;2023-04-02T02:28:08;11.66;65.04
71304;DHT22;59091;47.446;19.148;2023-04-02T02:30:36;11.60;65.49
71304;DHT22;59091;47.446;19.148;2023-04-02T02:33:17;11.53;65.52
71304;DHT22;59091;47.446;19.148;2023-04-02T02:36:00;11.53;65.75
71304;DHT22;59091;47.446;19.148;2023-04-02T02:41:07;11.52;65.61
71304;DHT22;59091;47.446;19.148;2023-04-02T02:43:38;11.44;66.05
71304;DHT22;59091;47.446;19.148;2023-04-02T02:46:06;11.55;66.13
71304;DHT22;59091;47.446;19.148;2023-04-02T02:48:36;11.63;65.80
71304;DHT22;59091;47.446;19.148;2023-04-02T02:51:05;11.60;65.77
71304;DHT22;59091;47.446;19.148;2023-04-02T02:53:32;11.50;66.30
71304;DHT22;59091;47.446;19.148;2023-04-02T02:55:59;11.47;66.23
71304;DHT22;59091;47.446;19.148;2023-04-02T02:58:28;11.47;66.50
71304;DHT22;59091;47.446;19.148;2023-04-02T03:00:55;11.44;66.56
71304;DHT22;59091;47.446;19.148;2023-04-02T03:03:24;11.44;66.49
71304;DHT22;59091;47.446;19.148;2023-04-02T03:05:52;11.46;66.58
71304;DHT22;59091;47.446;19.148;2023-04-02T03:08:25;11.47;66.45
71304;DHT22;59091;47.446;19.148;2023-04-02T03:11:04;11.60;65.92
71304;DHT22;59091;47.446;19.148;2023-04-02T03:13:33;11.52;66.33
71304;DHT22;59091;47.446;19.148;2023-04-02T03:16:22;11.29;66.77
71304;DHT22;59091;47.446;19.148;2023-04-02T03:19:05;11.20;67.22
71304;DHT22;59091;47.446;19.148;2023-04-02T03:26:57;11.26;67.18
71304;DHT22;59091;47.446;19.148;2023-04-02T03:29:28;11.35;66.86
71304;DHT22;59091;47.446;19.148;2023-04-02T03:32:02;11.32;67.04
71304;DHT22;59091;47.446;19.148;2023-04-02T03:34:41;11.30;66.91
71304;DHT22;59091;47.446;19.148;2023-04-02T03:37:21;11.29;67.14
71304;DHT22;59091;47.446;19.148;2023-04-02T03:39:54;11.37;67.15
71304;DHT22;59091;47.446;19.148;2023-04-02T03:42:25;11.40;66.90
71304;DHT22;59091;47.446;19.148;2023-04-02T03:44:59;11.50;66.62
71304;DHT22;59091;47.446;19.148;2023-04-02T03:47:31;11.39;67.07
71304;DHT22;59091;47.446;19.148;2023-04-02T03:52:34;11.25;67.15
71304;DHT22;59091;47.446;19.148;2023-04-02T03:55:02;11.23;67.29
71304;DHT22;59091;47.446;19.148;2023-04-02T03:57:42;11.35;67.09
71304;DHT22;59091;47.446;19.148;2023-04-02T04:02:49;11.43;66.58
71304;DHT22;59091;47.446;19.148;2023-04-02T04:05:29;11.40;66.77
71304;DHT22;59091;47.446;19.148;2023-04-02T04:08:01;11.29;67.22
71304;DHT22;59091;47.446;19.148;2023-04-02T04:10:28;11.26;67.50
71304;DHT22;59091;47.446;19.148;2023-04-02T04:13:00;11.35;67.07
71304;DHT22;59091;47.446;19.148;2023-04-02T04:18:07;11.28;66.90
71304;DHT22;59091;47.446;19.148;2023-04-02T04:23:18;11.20;67.21
71304;DHT22;59091;47.446;19.148;2023-04-02T04:25:44;11.32;67.07
71304;DHT22;59091;47.446;19.148;2023-04-02T04:28:35;11.32;66.78
71304;DHT22;59091;47.446;19.148;2023-04-02T04:31:19;11.30;66.74
71304;DHT22;59091;47.446;19.148;2023-04-02T04:33:50;11.26;66.98
71304;DHT22;59091;47.446;19.148;2023-04-02T04:38:54;11.28;67.32
71304;DHT22;59091;47.446;19.148;2023-04-02T04:41:34;11.22;67.15
71304;DHT22;59091;47.446;19.148;2023-04-02T04:44:13;11.01;68.07
71304;DHT22;59091;47.446;19.148;2023-04-02T04:46:44;11.14;67.53
71304;DHT22;59091;47.446;19.148;2023-04-02T04:49:21;11.16;67.36
71304;DHT22;59091;47.446;19.148;2023-04-02T04:51:57;11.06;67.82
71304;DHT22;59091;47.446;19.148;2023-04-02T04:54:27;11.11;67.82
71304;DHT22;59091;47.446;19.148;2023-04-02T04:57:02;11.12;67.69
71304;DHT22;59091;47.446;19.148;2023-04-02T04:59:43;11.04;68.01
71304;DHT22;59091;47.446;19.148;2023-04-02T05:02:16;11.12;67.96
71304;DHT22;59091;47.446;19.148;2023-04-02T05:04:48;11.04;68.16
71304;DHT22;59091;47.446;19.148;2023-04-02T05:07:17;11.06;68.33
71304;DHT22;59091;47.446;19.148;2023-04-02T05:09:51;11.14;68.52
71304;DHT22;59091;47.446;19.148;2023-04-02T05:15:16;11.12;68.29
71304;DHT22;59091;47.446;19.148;2023-04-02T05:20:52;11.25;68.05
71304;DHT22;59091;47.446;19.148;2023-04-02T05:31:04;11.57;67.07
71304;DHT22;59091;47.446;19.148;2023-04-02T05:33:35;11.69;66.55
71304;DHT22;59091;47.446;19.148;2023-04-02T05:36:08;11.52;66.89
71304;DHT22;59091;47.446;19.148;2023-04-02T05:38:37;11.69;67.05
71304;DHT22;59091;47.446;19.148;2023-04-02T05:41:17;11.69;66.64
71304;DHT22;59091;47.446;19.148;2023-04-02T05:43:48;11.78;66.50
71304;DHT22;59091;47.446;19.148;2023-04-02T05:46:21;11.83;66.51
71304;DHT22;59091;47.446;19.148;2023-04-02T05:48:53;11.98;66.50
71304;DHT22;59091;47.446;19.148;2023-04-02T05:51:26;12.04;66.07
71304;DHT22;59091;47.446;19.148;2023-04-02T05:53:55;12.16;65.91
71304;DHT22;59091;47.446;19.148;2023-04-02T05:56:37;12.24;65.10
71304;DHT22;59091;47.446;19.148;2023-04-02T05:59:12;12.38;64.83
71304;DHT22;59091;47.446;19.148;2023-04-02T06:04:41;12.63;64.16
71304;DHT22;59091;47.446;19.148;2023-04-02T06:07:14;13.04;70.84
71304;DHT22;59091;47.446;19.148;2023-04-02T06:12:31;13.16;62.84
71304;DHT22;59091;47.446;19.148;2023-04-02T06:14:59;13.27;62.24
71304;DHT22;59091;47.446;19.148;2023-04-02T06:17:25;13.37;61.71
71304;DHT22;59091;47.446;19.148;2023-04-02T06:19:52;13.58;61.90
71304;DHT22;59091;47.446;19.148;2023-04-02T06:22:21;13.68;61.02
71304;DHT22;59091;47.446;19.148;2023-04-02T06:24:52;13.75;60.58
71304;DHT22;59091;47.446;19.148;2023-04-02T06:27:22;13.78;60.65
71304;DHT22;59091;47.446;19.148;2023-04-02T06:29:49;13.77;60.40
71304;DHT22;59091;47.446;19.148;2023-04-02T06:32:18;14.06;60.15
71304;DHT22;59091;47.446;19.148;2023-04-02T06:34:47;14.04;60.19
71304;DHT22;59091;47.446;19.148;2023-04-02T06:37:32;13.99;59.84
71304;DHT22;59091;47.446;19.148;2023-04-02T06:39:59;13.82;60.02
71304;DHT22;59091;47.446;19.148;2023-04-02T06:42:27;13.85;60.29
71304;DHT22;59091;47.446;19.148;2023-04-02T06:44:54;13.88;60.28
71304;DHT22;59091;47.446;19.148;2023-04-02T06:47:40;13.88;60.16
71304;DHT22;59091;47.446;19.148;2023-04-02T06:50:21;14.02;60.10
71304;DHT22;59091;47.446;19.148;2023-04-02T06:52:52;14.06;59.68
71304;DHT22;59091;47.446;19.148;2023-04-02T06:57:44;14.29;59.45
71304;DHT22;59091;47.446;19.148;2023-04-02T07:00:42;14.26;58.57
71304;DHT22;59091;47.446;19.148;2023-04-02T07:03:29;14.32;58.90
71304;DHT22;59091;47.446;19.148;2023-04-02T07:05:56;14.56;58.52
71304;DHT22;59091;47.446;19.148;2023-04-02T07:08:23;14.69;58.29
71304;DHT22;59091;47.446;19.148;2023-04-02T07:10:48;14.80;58.54
71304;DHT22;59091;47.446;19.148;2023-04-02T07:13:16;14.74;57.56
71304;DHT22;59091;47.446;19.148;2023-04-02T07:15:44;14.62;57.57
71304;DHT22;59091;47.446;19.148;2023-04-02T07:18:32;14.49;57.05
71304;DHT22;59091;47.446;19.148;2023-04-02T07:20:58;14.57;57.36
71304;DHT22;59091;47.446;19.148;2023-04-02T07:23:24;14.43;57.40
71304;DHT22;59091;47.446;19.148;2023-04-02T07:25:52;14.83;56.99
71304;DHT22;59091;47.446;19.148;2023-04-02T07:28:18;15.01;57.46
71304;DHT22;59091;47.446;19.148;2023-04-02T07:30:44;15.24;55.73
71304;DHT22;59091;47.446;19.148;2023-04-02T07:33:14;15.34;54.98
71304;DHT22;59091;47.446;19.148;2023-04-02T07:35:41;15.53;54.92
71304;DHT22;59091;47.446;19.148;2023-04-02T07:38:07;15.69;54.94
71304;DHT22;59091;47.446;19.148;2023-04-02T07:40:33;15.69;55.05
71304;DHT22;59091;47.446;19.148;2023-04-02T07:42:58;15.70;54.13
71304;DHT22;59091;47.446;19.148;2023-04-02T07:45:25;15.70;53.70
71304;DHT22;59091;47.446;19.148;2023-04-02T07:47:50;15.79;53.89
71304;DHT22;59091;47.446;19.148;2023-04-02T07:50:16;15.65;54.01
71304;DHT22;59091;47.446;19.148;2023-04-02T07:52:42;15.56;53.86
71304;DHT22;59091;47.446;19.148;2023-04-02T07:55:13;15.52;54.13
71304;DHT22;59091;47.446;19.148;2023-04-02T07:57:39;15.69;53.66
71304;DHT22;59091;47.446;19.148;2023-04-02T08:00:09;15.86;53.60
71304;DHT22;59091;47.446;19.148;2023-04-02T08:02:36;15.79;53.73
71304;DHT22;59091;47.446;19.148;2023-04-02T08:05:02;16.06;53.03
71304;DHT22;59091;47.446;19.148;2023-04-02T08:07:28;16.02;52.76
71304;DHT22;59091;47.446;19.148;2023-04-02T08:09:53;16.03;52.68
71304;DHT22;59091;47.446;19.148;2023-04-02T08:12:19;16.13;52.58
71304;DHT22;59091;47.446;19.148;2023-04-02T08:14:44;16.31;52.44
71304;DHT22;59091;47.446;19.148;2023-04-02T08:17:10;16.57;52.72
71304;DHT22;59091;47.446;19.148;2023-04-02T08:19:36;16.65;51.05
71304;DHT22;59091;47.446;19.148;2023-04-02T08:22:01;16.75;51.17
71304;DHT22;59091;47.446;19.148;2023-04-02T08:24:27;16.86;50.62
71304;DHT22;59091;47.446;19.148;2023-04-02T08:26:52;17.01;50.67
71304;DHT22;59091;47.446;19.148;2023-04-02T08:29:19;16.91;50.49
71304;DHT22;59091;47.446;19.148;2023-04-02T08:31:45;16.78;51.08
71304;DHT22;59091;47.446;19.148;2023-04-02T08:34:11;16.45;51.26
71304;DHT22;59091;47.446;19.148;2023-04-02T08:36:38;16.24;52.11
71304;DHT22;59091;47.446;19.148;2023-04-02T08:39:09;16.12;52.28
71304;DHT22;59091;47.446;19.148;2023-04-02T08:41:51;16.27;52.27
71304;DHT22;59091;47.446;19.148;2023-04-02T08:46:58;16.51;51.66
71304;DHT22;59091;47.446;19.148;2023-04-02T08:49:32;16.60;51.66
71304;DHT22;59091;47.446;19.148;2023-04-02T08:52:00;16.76;51.97
71304;DHT22;59091;47.446;19.148;2023-04-02T08:54:34;16.95;51.18
71304;DHT22;59091;47.446;19.148;2023-04-02T08:57:20;17.18;51.48
71304;DHT22;59091;47.446;19.148;2023-04-02T08:59:57;17.43;52.60
71304;DHT22;59091;47.446;19.148;2023-04-02T09:02:34;17.36;49.62
71304;DHT22;59091;47.446;19.148;2023-04-02T09:05:04;17.25;49.72
71304;DHT22;59091;47.446;19.148;2023-04-02T09:07:31;17.16;49.87
71304;DHT22;59091;47.446;19.148;2023-04-02T09:09:58;17.22;49.77
71304;DHT22;59091;47.446;19.148;2023-04-02T09:12:30;17.23;49.66
71304;DHT22;59091;47.446;19.148;2023-04-02T09:17:56;17.06;50.24
71304;DHT22;59091;47.446;19.148;2023-04-02T09:20:25;17.05;50.70
71304;DHT22;59091;47.446;19.148;2023-04-02T09:22:51;17.20;50.65
71304;DHT22;59091;47.446;19.148;2023-04-02T09:25:25;17.57;49.80
71304;DHT22;59091;47.446;19.148;2023-04-02T09:28:02;17.84;48.90
71304;DHT22;59091;47.446;19.148;2023-04-02T09:32:58;18.28;46.55
71304;DHT22;59091;47.446;19.148;2023-04-02T09:35:31;18.49;46.15
71304;DHT22;59091;47.446;19.148;2023-04-02T09:43:30;19.16;46.23
71304;DHT22;59091;47.446;19.148;2023-04-02T09:46:03;18.69;46.76
71304;DHT22;59091;47.446;19.148;2023-04-02T09:48:36;18.75;47.41
71304;DHT22;59091;47.446;19.148;2023-04-02T09:53:32;18.34;47.61
71304;DHT22;59091;47.446;19.148;2023-04-02T09:56:08;18.52;48.21
71304;DHT22;59091;47.446;19.148;2023-04-02T09:58:34;18.39;47.76
71304;DHT22;59091;47.446;19.148;2023-04-02T10:01:00;18.35;48.53
71304;DHT22;59091;47.446;19.148;2023-04-02T10:03:28;18.45;47.23
71304;DHT22;59091;47.446;19.148;2023-04-02T10:08:32;18.17;47.93
71304;DHT22;59091;47.446;19.148;2023-04-02T10:11:03;17.96;48.36
71304;DHT22;59091;47.446;19.148;2023-04-02T10:13:52;17.84;47.81
71304;DHT22;59091;47.446;19.148;2023-04-02T10:16:41;18.01;47.12
71304;DHT22;59091;47.446;19.148;2023-04-02T10:21:47;18.44;47.34
71304;DHT22;59091;47.446;19.148;2023-04-02T10:24:17;18.36;47.31
71304;DHT22;59091;47.446;19.148;2023-04-02T10:45:39;18.82;46.92
71304;DHT22;59091;47.446;19.148;2023-04-02T10:50:50;18.72;46.21
71304;DHT22;59091;47.446;19.148;2023-04-02T10:53:18;18.77;45.99
71304;DHT22;59091;47.446;19.148;2023-04-02T10:55:57;18.79;46.42
71304;DHT22;59091;47.446;19.148;2023-04-02T10:58:29;18.89;47.99
71304;DHT22;59091;47.446;19.148;2023-04-02T11:01:00;18.77;46.47
71304;DHT22;59091;47.446;19.148;2023-04-02T11:03:34;18.63;46.26
71304;DHT22;59091;47.446;19.148;2023-04-02T11:06:05;18.41;47.52
71304;DHT22;59091;47.446;19.148;2023-04-02T11:08:45;18.41;46.91
71304;DHT22;59091;47.446;19.148;2023-04-02T11:11:15;18.41;46.51
71304;DHT22;59091;47.446;19.148;2023-04-02T11:16:56;18.07;48.21
71304;DHT22;59091;47.446;19.148;2023-04-02T11:19:27;17.90;48.22
71304;DHT22;59091;47.446;19.148;2023-04-02T11:22:17;17.91;48.48
71304;DHT22;59091;47.446;19.148;2023-04-02T11:24:54;17.83;48.42
71304;DHT22;59091;47.446;19.148;2023-04-02T11:32:42;18.28;46.42
71304;DHT22;59091;47.446;19.148;2023-04-02T11:37:59;18.18;45.76
71304;DHT22;59091;47.446;19.148;2023-04-02T11:43:48;18.25;46.35
71304;DHT22;59091;47.446;19.148;2023-04-02T11:49:33;18.90;46.41
71304;DHT22;59091;47.446;19.148;2023-04-02T11:52:00;19.16;51.89
71304;DHT22;59091;47.446;19.148;2023-04-02T11:54:28;19.11;48.76
71304;DHT22;59091;47.446;19.148;2023-04-02T11:57:21;18.58;45.66
71304;DHT22;59091;47.446;19.148;2023-04-02T12:05:39;18.60;44.62
71304;DHT22;59091;47.446;19.148;2023-04-02T12:11:12;18.29;44.72
71304;DHT22;59091;47.446;19.148;2023-04-02T12:16:05;18.48;45.53
71304;DHT22;59091;47.446;19.148;2023-04-02T12:18:31;18.65;44.64
71304;DHT22;59091;47.446;19.148;2023-04-02T12:20:57;18.53;43.69
71304;DHT22;59091;47.446;19.148;2023-04-02T12:23:34;18.83;43.87
71304;DHT22;59091;47.446;19.148;2023-04-02T12:26:02;18.99;44.62
71304;DHT22;59091;47.446;19.148;2023-04-02T12:28:31;19.20;45.28
71304;DHT22;59091;47.446;19.148;2023-04-02T12:33:37;19.06;43.20
71304;DHT22;59091;47.446;19.148;2023-04-02T12:36:21;18.75;41.57
71304;DHT22;59091;47.446;19.148;2023-04-02T12:38:56;18.76;41.50
71304;DHT22;59091;47.446;19.148;2023-04-02T12:41:35;18.99;41.45
71304;DHT22;59091;47.446;19.148;2023-04-02T12:44:02;18.96;42.43
71304;DHT22;59091;47.446;19.148;2023-04-02T12:46:30;19.40;43.44
71304;DHT22;59091;47.446;19.148;2023-04-02T12:49:35;19.59;41.65
71304;DHT22;59091;47.446;19.148;2023-04-02T12:52:04;19.47;41.35
71304;DHT22;59091;47.446;19.148;2023-04-02T12:54:35;19.46;39.96
71304;DHT22;59091;47.446;19.148;2023-04-02T12:59:49;19.21;41.36
71304;DHT22;59091;47.446;19.148;2023-04-02T13:02:44;19.32;41.94
71304;DHT22;59091;47.446;19.148;2023-04-02T13:05:10;19.34;41.92
71304;DHT22;59091;47.446;19.148;2023-04-02T13:07:37;19.03;42.97
71304;DHT22;59091;47.446;19.148;2023-04-02T13:10:05;18.97;43.65
71304;DHT22;59091;47.446;19.148;2023-04-02T13:12:47;19.00;41.28
71304;DHT22;59091;47.446;19.148;2023-04-02T13:15:21;18.95;47.56
71304;DHT22;59091;47.446;19.148;2023-04-02T13:20:42;18.73;44.07
71304;DHT22;59091;47.446;19.148;2023-04-02T13:28:36;18.42;45.10
71304;DHT22;59091;47.446;19.148;2023-04-02T13:31:02;18.38;46.25
71304;DHT22;59091;47.446;19.148;2023-04-02T13:33:27;18.66;45.72
71304;DHT22;59091;47.446;19.148;2023-04-02T13:35:53;18.83;45.49
71304;DHT22;59091;47.446;19.148;2023-04-02T13:38:18;19.16;45.06
71304;DHT22;59091;47.446;19.148;2023-04-02T13:40:44;19.37;45.08
71304;DHT22;59091;47.446;19.148;2023-04-02T13:43:18;18.92;43.64
71304;DHT22;59091;47.446;19.148;2023-04-02T13:45:47;18.39;44.58
71304;DHT22;59091;47.446;19.148;2023-04-02T13:48:14;18.46;44.49
71304;DHT22;59091;47.446;19.148;2023-04-02T13:50:40;18.07;45.39
71304;DHT22;59091;47.446;19.148;2023-04-02T13:53:07;17.96;46.29
71304;DHT22;59091;47.446;19.148;2023-04-02T13:55:39;17.70;45.48
71304;DHT22;59091;47.446;19.148;2023-04-02T13:58:06;17.71;45.97
71304;DHT22;59091;47.446;19.148;2023-04-02T14:00:32;17.64;46.03
71304;DHT22;59091;47.446;19.148;2023-04-02T14:03:13;17.64;45.65
71304;DHT22;59091;47.446;19.148;2023-04-02T14:09:03;17.73;46.19
71304;DHT22;59091;47.446;19.148;2023-04-02T14:22:06;17.53;43.10
71304;DHT22;59091;47.446;19.148;2023-04-02T14:27:05;17.74;42.96
71304;DHT22;59091;47.446;19.148;2023-04-02T14:29:40;17.96;43.82
71304;DHT22;59091;47.446;19.148;2023-04-02T14:32:39;18.18;43.85
71304;DHT22;59091;47.446;19.148;2023-04-02T14:43:01;18.22;45.35
71304;DHT22;59091;47.446;19.148;2023-04-02T14:45:56;18.14;44.82
71304;DHT22;59091;47.446;19.148;2023-04-02T14:50:57;17.54;46.14
71304;DHT22;59091;47.446;19.148;2023-04-02T14:53:28;17.46;47.71
71304;DHT22;59091;47.446;19.148;2023-04-02T14:55:56;17.33;48.35
71304;DHT22;59091;47.446;19.148;2023-04-02T14:58:32;17.18;48.90
71304;DHT22;59091;47.446;19.148;2023-04-02T15:01:15;16.81;48.24
71304;DHT22;59091;47.446;19.148;2023-04-02T15:03:54;16.41;48.64
71304;DHT22;59091;47.446;19.148;2023-04-02T15:06:35;16.10;50.10
71304;DHT22;59091;47.446;19.148;2023-04-02T15:12:23;16.04;50.78
71304;DHT22;59091;47.446;19.148;2023-04-02T15:14:57;16.09;54.64
71304;DHT22;59091;47.446;19.148;2023-04-02T15:17:23;15.85;51.08
71304;DHT22;59091;47.446;19.148;2023-04-02T15:19:55;15.65;53.01
71304;DHT22;59091;47.446;19.148;2023-04-02T15:27:48;14.88;56.00
71304;DHT22;59091;47.446;19.148;2023-04-02T15:32:45;14.57;57.87
71304;DHT22;59091;47.446;19.148;2023-04-02T15:35:33;14.66;58.04
71304;DHT22;59091;47.446;19.148;2023-04-02T15:38:14;14.34;59.80
71304;DHT22;59091;47.446;19.148;2023-04-02T15:52:26;13.79;63.28
71304;DHT22;59091;47.446;19.148;2023-04-02T16:00:32;14.11;63.57
71304;DHT22;59091;47.446;19.148;2023-04-02T16:08:47;14.09;66.83
71304;DHT22;59091;47.446;19.148;2023-04-02T16:11:17;14.30;69.37
71304;DHT22;59091;47.446;19.148;2023-04-02T16:13:43;14.43;66.65
71304;DHT22;59091;47.446;19.148;2023-04-02T16:16:21;14.56;65.84
71304;DHT22;59091;47.446;19.148;2023-04-02T16:21:44;14.80;67.23
71304;DHT22;59091;47.446;19.148;2023-04-02T16:24:12;14.95;67.21
71304;DHT22;59091;47.446;19.148;2023-04-02T16:29:48;15.28;64.38
71304;DHT22;59091;47.446;19.148;2023-04-02T16:35:00;15.59;68.01
71304;DHT22;59091;47.446;19.148;2023-04-02T16:37:39;15.66;64.83
71304;DHT22;59091;47.446;19.148;2023-04-02T16:45:57;14.91;65.24
71304;DHT22;59091;47.446;19.148;2023-04-02T16:48:29;14.56;66.76
71304;DHT22;59091;47.446;19.148;2023-04-02T17:02:39;14.43;67.61
71304;DHT22;59091;47.446;19.148;2023-04-02T17:08:13;14.56;67.49
71304;DHT22;59091;47.446;19.148;2023-04-02T17:10:51;14.49;67.53
71304;DHT22;59091;47.446;19.148;2023-04-02T17:13:39;14.33;68.10
71304;DHT22;59091;47.446;19.148;2023-04-02T17:16:20;14.43;68.17
71304;DHT22;59091;47.446;19.148;2023-04-02T17:18:48;14.44;68.08
71304;DHT22;59091;47.446;19.148;2023-04-02T17:21:18;14.47;68.25
71304;DHT22;59091;47.446;19.148;2023-04-02T17:23:49;14.42;68.25
71304;DHT22;59091;47.446;19.148;2023-04-02T17:26:17;14.39;68.56
71304;DHT22;59091;47.446;19.148;2023-04-02T17:28:44;14.25;68.37
71304;DHT22;59091;47.446;19.148;2023-04-02T17:33:40;14.28;68.84
71304;DHT22;59091;47.446;19.148;2023-04-02T17:36:27;14.18;69.02
71304;DHT22;59091;47.446;19.148;2023-04-02T17:42:48;14.09;69.50
71304;DHT22;59091;47.446;19.148;2023-04-02T17:58:55;12.83;59.89
71304;DHT22;59091;47.446;19.148;2023-04-02T18:12:22;12.63;59.73
71304;DHT22;59091;47.446;19.148;2023-04-02T18:15:00;12.69;59.53
71304;DHT22;59091;47.446;19.148;2023-04-02T18:17:53;12.41;59.26
71304;DHT22;59091;47.446;19.148;2023-04-02T18:20:38;12.41;59.45
71304;DHT22;59091;47.446;19.148;2023-04-02T18:26:36;11.95;58.58
71304;DHT22;59091;47.446;19.148;2023-04-02T18:29:11;11.80;58.97
71304;DHT22;59091;47.446;19.148;2023-04-02T18:31:48;11.59;58.92
71304;DHT22;59091;47.446;19.148;2023-04-02T18:34:25;11.57;58.55
71304;DHT22;59091;47.446;19.148;2023-04-02T18:50:32;11.37;58.05
71304;DHT22;59091;47.446;19.148;2023-04-02T18:53:01;11.46;58.20
71304;DHT22;59091;47.446;19.148;2023-04-02T18:55:34;11.30;58.74
71304;DHT22;59091;47.446;19.148;2023-04-02T18:58:24;11.30;58.18
71304;DHT22;59091;47.446;19.148;2023-04-02T19:00:49;11.40;58.16
71304;DHT22;59091;47.446;19.148;2023-04-02T19:03:30;11.23;58.69
71304;DHT22;59091;47.446;19.148;2023-04-02T19:06:03;11.23;58.53
71304;DHT22;59091;47.446;19.148;2023-04-02T19:08:42;11.14;59.00
71304;DHT22;59091;47.446;19.148;2023-04-02T19:11:19;11.09;58.76
71304;DHT22;59091;47.446;19.148;2023-04-02T19:13:53;11.18;58.85
71304;DHT22;59091;47.446;19.148;2023-04-02T19:19:13;11.04;58.80
71304;DHT22;59091;47.446;19.148;2023-04-02T19:32:48;10.89;58.86
71304;DHT22;59091;47.446;19.148;2023-04-02T19:35:22;10.92;59.09
71304;DHT22;59091;47.446;19.148;2023-04-02T19:43:12;10.54;59.32
71304;DHT22;59091;47.446;19.148;2023-04-02T19:45:43;10.44;59.31
71304;DHT22;59091;47.446;19.148;2023-04-02T19:48:15;10.54;59.26
71304;DHT22;59091;47.446;19.148;2023-04-02T19:50:42;10.34;60.07
71304;DHT22;59091;47.446;19.148;2023-04-02T19:53:08;10.53;59.38
71304;DHT22;59091;47.446;19.148;2023-04-02T19:55:33;10.54;59.02
71304;DHT22;59091;47.446;19.148;2023-04-02T19:57:59;10.50;59.28
71304;DHT22;59091;47.446;19.148;2023-04-02T20:00:25;10.57;59.52
71304;DHT22;59091;47.446;19.148;2023-04-02T20:02:51;10.53;59.03
71304;DHT22;59091;47.446;19.148;2023-04-02T20:05:16;10.51;58.99
71304;DHT22;59091;47.446;19.148;2023-04-02T20:07:41;10.38;59.37
71304;DHT22;59091;47.446;19.148;2023-04-02T20:10:07;10.24;59.15
71304;DHT22;59091;47.446;19.148;2023-04-02T20:12:33;10.29;59.77
71304;DHT22;59091;47.446;19.148;2023-04-02T20:14:58;10.44;59.27
71304;DHT22;59091;47.446;19.148;2023-04-02T20:17:24;10.46;59.20
71304;DHT22;59091;47.446;19.148;2023-04-02T20:19:49;10.43;59.26
71304;DHT22;59091;47.446;19.148;2023-04-02T20:22:15;10.46;59.19
71304;DHT22;59091;47.446;19.148;2023-04-02T20:24:43;10.36;59.75
71304;DHT22;59091;47.446;19.148;2023-04-02T20:27:08;10.48;59.15
71304;DHT22;59091;47.446;19.148;2023-04-02T20:29:34;10.37;59.46
71304;DHT22;59091;47.446;19.148;2023-04-02T20:32:00;10.40;59.70
71304;DHT22;59091;47.446;19.148;2023-04-02T20:34:25;10.40;59.51
71304;DHT22;59091;47.446;19.148;2023-04-02T20:36:51;10.51;59.61
71304;DHT22;59091;47.446;19.148;2023-04-02T20:39:18;10.26;59.64
71304;DHT22;59091;47.446;19.148;2023-04-02T20:41:45;10.30;59.84
71304;DHT22;59091;47.446;19.148;2023-04-02T20:44:10;10.34;59.64
71304;DHT22;59091;47.446;19.148;2023-04-02T20:46:37;10.21;60.61
71304;DHT22;59091;47.446;19.148;2023-04-02T20:49:03;10.29;61.50
71304;DHT22;59091;47.446;19.148;2023-04-02T20:51:28;10.37;61.14
71304;DHT22;59091;47.446;19.148;2023-04-02T20:53:54;10.55;60.99
71304;DHT22;59091;47.446;19.148;2023-04-02T20:56:20;10.53;61.61